Time;durP1;ratioP1;P1;durP2;ratioP2;P2;SDS_P1;SDS_P2;PMS_P1;PMS_P2;Temp;Humidity;BMP_temperature;BMP_pressure;BME280_temperature;BME280_humidity;BME280_pressure;Samples;Min_cycle;Max_cycle;Signal;HPM_P1;HPM_P2
2023/03/26 00:01:57;;;;;;;135.95;59.33;;;;;;;10.93;100.00;99836.69;5006716;28;20464;-87
2023/03/26 00:04:24;;;;;;;144.95;59.60;;;;;;;11.08;100.00;99849.66;4964000;28;20034;-89
2023/03/26 00:06:50;;;;;;;138.75;60.33;;;;;;;11.13;100.00;99833.94;4995180;28;20030;-88
2023/03/26 00:09:16;;;;;;;142.85;60.60;;;;;;;11.21;100.00;99836.72;4955343;28;20426;-90
2023/03/26 00:11:44;;;;;;;133.57;60.83;;;;;;;11.31;100.00;99845.63;4955932;28;20038;-91
2023/03/26 00:14:12;;;;;;;127.35;55.03;;;;;;;11.39;100.00;99837.63;4955967;28;20411;-89
2023/03/26 00:16:42;;;;;;;122.40;53.60;;;;;;;11.45;100.00;99850.50;4954047;28;20582;-90
2023/03/26 00:19:08;;;;;;;134.85;58.63;;;;;;;11.50;100.00;99860.84;4970763;28;20042;-90
2023/03/26 00:21:34;;;;;;;135.35;61.38;;;;;;;11.57;100.00;99857.38;4955664;28;20611;-90
2023/03/26 00:24:06;;;;;;;134.20;57.22;;;;;;;11.62;100.00;99855.06;4975013;28;20051;-90
2023/03/26 00:26:33;;;;;;;118.20;54.63;;;;;;;11.65;100.00;99849.38;4971631;28;20059;-83
2023/03/26 00:28:59;;;;;;;127.82;55.83;;;;;;;11.66;100.00;99848.41;4977612;28;20039;-90
2023/03/26 00:31:25;;;;;;;127.05;56.03;;;;;;;11.72;100.00;99855.91;4976126;28;20031;-84
2023/03/26 00:33:54;;;;;;;115.85;56.78;;;;;;;11.79;100.00;99867.78;4972966;29;20062;-84
2023/03/26 00:36:21;;;;;;;126.60;57.80;;;;;;;11.66;99.89;99840.31;4977668;28;20047;-84
2023/03/26 00:38:47;;;;;;;134.73;61.10;;;;;;;11.86;99.23;99873.44;4974087;28;20027;-89
2023/03/26 00:41:42;;;;;;;136.80;66.10;;;;;;;11.78;98.73;99859.84;4970946;28;20058;-83
2023/03/26 00:44:04;;;;;;;147.38;68.80;;;;;;;11.71;97.57;99867.66;4973805;28;20050;-85
2023/03/26 00:46:30;;;;;;;144.88;74.82;;;;;;;11.70;97.38;99874.09;4953993;29;20059;-87
2023/03/26 00:48:57;;;;;;;156.85;78.22;;;;;;;11.73;97.09;99879.16;4963766;29;20109;-89
2023/03/26 00:51:23;;;;;;;154.10;79.03;;;;;;;11.74;96.85;99872.75;4938448;29;20430;-90
2023/03/26 00:53:49;;;;;;;164.57;81.53;;;;;;;11.71;96.73;99881.13;4950874;29;20031;-91
2023/03/26 00:56:15;;;;;;;176.25;81.82;;;;;;;11.64;96.78;99877.34;4954173;29;20095;-90
2023/03/26 00:58:41;;;;;;;170.32;85.05;;;;;;;11.65;97.16;99889.78;4962932;29;20027;-88
2023/03/26 01:01:09;;;;;;;182.00;90.10;;;;;;;11.52;96.43;99892.00;4954992;29;20042;-91
2023/03/26 01:03:39;;;;;;;194.95;95.15;;;;;;;11.51;95.95;99895.69;4956636;29;20035;-91
2023/03/26 01:06:12;;;;;;;195.82;92.90;;;;;;;11.50;96.36;99888.59;4957935;29;20474;-91
2023/03/26 01:08:46;;;;;;;177.98;90.85;;;;;;;11.52;96.27;99897.38;4973904;28;20062;-90
2023/03/26 01:11:27;;;;;;;184.10;93.13;;;;;;;11.43;95.83;99903.66;4975071;28;20061;-87
2023/03/26 01:14:03;;;;;;;177.75;92.90;;;;;;;11.47;96.13;99894.28;4980686;28;20062;-90
2023/03/26 01:16:44;;;;;;;179.93;87.20;;;;;;;11.42;96.17;99869.66;4994116;28;20050;-87
2023/03/26 01:19:37;;;;;;;166.85;84.47;;;;;;;11.43;95.55;99869.50;4995356;28;20086;-87
2023/03/26 01:22:04;;;;;;;169.82;87.85;;;;;;;11.46;95.76;99882.69;4986668;28;20045;-88
2023/03/26 01:24:30;;;;;;;160.65;84.50;;;;;;;11.49;95.67;99881.53;4974352;28;20046;-91
2023/03/26 01:27:30;;;;;;;156.93;83.20;;;;;;;11.45;95.91;99885.50;4971084;28;20051;-91
2023/03/26 01:30:15;;;;;;;160.50;83.60;;;;;;;11.36;95.71;99889.94;4976157;28;20402;-89
2023/03/26 01:32:59;;;;;;;167.65;85.50;;;;;;;11.26;95.46;99888.25;4976291;28;20387;-91
2023/03/26 01:35:47;;;;;;;167.75;86.03;;;;;;;11.25;95.63;99895.47;4993768;28;20034;-92
2023/03/26 01:38:12;;;;;;;164.13;87.65;;;;;;;11.22;95.56;99898.47;4994601;28;20054;-89
2023/03/26 01:41:03;;;;;;;171.65;91.53;;;;;;;11.12;95.94;99892.28;4997200;28;20033;-83
2023/03/26 01:43:31;;;;;;;174.82;89.32;;;;;;;11.18;96.32;99888.16;5000003;28;20058;-83
2023/03/26 01:46:04;;;;;;;182.43;93.22;;;;;;;11.29;96.72;99887.97;4998772;28;20051;-85
2023/03/26 01:48:39;;;;;;;174.50;90.90;;;;;;;11.34;96.89;99891.91;4980754;28;20031;-90
2023/03/26 01:51:05;;;;;;;178.02;90.68;;;;;;;11.31;96.98;99880.63;4975804;28;20031;-92
2023/03/26 01:53:33;;;;;;;175.88;92.00;;;;;;;11.42;97.13;99889.34;4975303;28;20031;-90
2023/03/26 01:56:39;;;;;;;162.25;89.18;;;;;;;11.53;97.64;99893.69;4976814;28;20113;-89
2023/03/26 01:59:15;;;;;;;164.20;87.35;;;;;;;11.49;98.39;99884.22;4976149;28;20030;-90
2023/03/26 02:01:56;;;;;;;156.00;85.90;;;;;;;11.51;98.01;99884.06;4974343;28;20043;-89
2023/03/26 02:04:37;;;;;;;150.40;85.40;;;;;;;11.61;98.19;99895.66;4974724;28;20054;-89
2023/03/26 02:07:20;;;;;;;167.13;87.40;;;;;;;11.60;97.90;99888.53;4979711;28;20030;-89
2023/03/26 02:09:54;;;;;;;151.30;85.60;;;;;;;11.62;97.22;99873.09;5005038;28;20066;-88
2023/03/26 02:12:21;;;;;;;159.27;87.15;;;;;;;11.72;96.20;99882.84;4999894;28;20112;-90
2023/03/26 02:14:47;;;;;;;160.73;84.07;;;;;;;11.68;96.18;99881.41;4994072;28;20034;-89
2023/03/26 02:17:13;;;;;;;161.43;85.55;;;;;;;11.66;95.82;99872.66;4994695;28;20041;-90
2023/03/26 02:19:42;;;;;;;154.75;81.88;;;;;;;11.71;95.22;99883.00;4994610;28;20362;-88
2023/03/26 02:22:14;;;;;;;140.43;81.47;;;;;;;11.72;95.37;99874.78;4994590;28;20490;-90
2023/03/26 02:24:40;;;;;;;140.07;78.97;;;;;;;11.73;95.04;99881.84;4994851;28;20566;-91
2023/03/26 02:27:11;;;;;;;147.73;81.05;;;;;;;11.74;95.50;99888.09;4996064;28;20109;-88
2023/03/26 02:29:37;;;;;;;135.95;78.95;;;;;;;11.70;94.83;99882.16;4996613;28;20116;-88
2023/03/26 02:32:06;;;;;;;139.70;77.80;;;;;;;11.75;95.23;99882.56;4997079;28;20069;-88
2023/03/26 02:34:32;;;;;;;143.57;82.13;;;;;;;11.78;95.46;99882.25;5003382;28;20085;-88
2023/03/26 02:36:58;;;;;;;137.63;78.88;;;;;;;11.77;94.92;99885.09;5004602;28;20153;-87
2023/03/26 02:39:25;;;;;;;141.05;78.78;;;;;;;11.82;94.92;99883.66;5012984;28;20010;-85
2023/03/26 02:41:50;;;;;;;132.23;74.18;;;;;;;11.88;95.24;99888.44;5018107;28;20030;-84
2023/03/26 02:44:16;;;;;;;98.47;57.42;;;;;;;11.93;94.94;99871.78;5007978;28;20105;-87
2023/03/26 02:46:41;;;;;;;105.18;61.17;;;;;;;12.03;95.59;99883.38;4995960;28;20034;-88
2023/03/26 02:49:07;;;;;;;97.43;55.78;;;;;;;12.01;95.54;99871.91;4995802;28;20034;-86
2023/03/26 02:51:36;;;;;;;80.97;48.78;;;;;;;12.06;95.66;99884.91;4995444;28;20037;-87
2023/03/26 02:54:02;;;;;;;80.50;48.05;;;;;;;12.10;96.10;99887.16;4995233;28;20113;-87
2023/03/26 02:56:28;;;;;;;73.85;42.80;;;;;;;12.10;95.99;99891.69;4994472;28;20028;-87
2023/03/26 02:58:54;;;;;;;73.22;45.00;;;;;;;12.06;95.33;99895.69;4993189;28;20116;-89
2023/03/26 03:01:19;;;;;;;75.35;45.53;;;;;;;12.09;95.38;99898.06;4992936;28;20029;-88
2023/03/26 03:03:48;;;;;;;72.97;45.15;;;;;;;12.15;95.17;99905.56;4993605;28;20387;-86
2023/03/26 03:06:17;;;;;;;83.07;45.47;;;;;;;12.20;95.17;99897.88;4994759;28;20029;-86
2023/03/26 03:08:44;;;;;;;72.07;43.97;;;;;;;12.22;94.78;99896.72;4994320;28;20050;-86
2023/03/26 03:11:23;;;;;;;86.70;45.67;;;;;;;12.23;95.79;99897.56;4993048;28;20033;-89
2023/03/26 03:13:49;;;;;;;65.95;41.67;;;;;;;12.18;95.95;99905.25;4993160;28;20037;-88
2023/03/26 03:16:15;;;;;;;65.10;39.65;;;;;;;12.23;95.25;99908.34;4992969;28;20399;-87
2023/03/26 03:18:41;;;;;;;71.10;40.97;;;;;;;12.22;95.13;99901.25;4999330;28;20046;-89
2023/03/26 03:21:06;;;;;;;69.90;39.05;;;;;;;12.20;95.46;99897.88;4977980;28;20042;-86
2023/03/26 03:23:32;;;;;;;60.92;36.97;;;;;;;12.19;95.55;99901.56;4992157;28;20038;-86
2023/03/26 03:25:58;;;;;;;60.05;37.90;;;;;;;12.18;94.96;99905.25;4975504;28;20065;-85
2023/03/26 03:28:24;;;;;;;58.78;34.92;;;;;;;12.19;94.40;99915.91;4992909;28;20027;-87
2023/03/26 03:30:52;;;;;;;56.15;31.90;;;;;;;12.19;94.63;99915.03;4975669;28;20027;-88
2023/03/26 03:33:21;;;;;;;57.30;33.70;;;;;;;12.20;95.26;99912.19;4995157;28;20037;-86
2023/03/26 03:35:48;;;;;;;45.67;28.60;;;;;;;12.19;95.04;99912.34;4994795;28;20101;-85
2023/03/26 03:38:15;;;;;;;48.20;30.38;;;;;;;12.25;94.88;99917.13;4990314;28;20034;-86
2023/03/26 03:40:42;;;;;;;50.40;28.67;;;;;;;12.27;94.90;99907.03;5013058;28;20034;-86
2023/03/26 03:43:07;;;;;;;48.53;27.95;;;;;;;12.27;95.33;99907.03;4998732;28;20117;-85
2023/03/26 03:45:33;;;;;;;41.22;26.00;;;;;;;12.30;95.72;99922.91;4992973;28;20097;-84
2023/03/26 03:47:58;;;;;;;48.88;28.98;;;;;;;12.29;95.44;99934.72;4992830;28;20026;-84
2023/03/26 03:50:24;;;;;;;42.17;27.02;;;;;;;12.37;94.54;99932.09;4991485;28;20030;-85
2023/03/26 03:52:50;;;;;;;45.25;27.17;;;;;;;12.41;93.52;99928.09;4992049;28;20104;-86
2023/03/26 03:55:16;;;;;;;44.70;27.25;;;;;;;12.45;92.77;99930.31;4992195;28;20022;-86
2023/03/26 03:57:41;;;;;;;58.65;27.65;;;;;;;12.49;92.64;99928.16;4992338;28;20053;-86
2023/03/26 04:00:10;;;;;;;39.20;25.55;;;;;;;12.49;91.22;99937.09;4992503;28;20026;-87
2023/03/26 04:02:37;;;;;;;39.20;23.65;;;;;;;12.57;90.89;99925.53;4992171;28;20038;-86
2023/03/26 04:05:04;;;;;;;33.70;22.65;;;;;;;12.62;90.33;99919.69;4992455;28;20026;-86
2023/03/26 04:07:31;;;;;;;29.60;19.75;;;;;;;12.63;90.18;99926.78;4991874;28;20576;-88
2023/03/26 04:10:01;;;;;;;23.77;14.88;;;;;;;12.59;89.01;99914.59;4992260;28;20505;-86
2023/03/26 04:12:27;;;;;;;18.90;8.50;;;;;;;12.61;88.58;99924.22;4992316;28;20343;-85
2023/03/26 04:14:53;;;;;;;8.85;6.15;;;;;;;12.63;87.68;99916.81;4993576;28;20034;-84
2023/03/26 04:17:20;;;;;;;5.03;4.03;;;;;;;12.68;88.02;99930.69;4997490;28;20061;-86
2023/03/26 04:19:47;;;;;;;6.55;5.30;;;;;;;12.71;88.10;99930.38;4993586;28;20069;-86
2023/03/26 04:22:12;;;;;;;7.45;4.43;;;;;;;12.75;88.81;99942.53;4991990;28;20038;-85
2023/03/26 04:24:41;;;;;;;7.63;4.80;;;;;;;12.75;89.38;99934.44;4992858;28;20030;-85
2023/03/26 04:27:11;;;;;;;6.40;4.53;;;;;;;12.75;89.46;99931.75;4995747;28;20113;-85
2023/03/26 04:29:43;;;;;;;6.55;4.68;;;;;;;12.65;88.94;99932.84;4993625;28;20022;-85
2023/03/26 04:32:18;;;;;;;8.30;5.40;;;;;;;12.73;88.85;99935.63;4994952;28;20109;-88
2023/03/26 04:34:44;;;;;;;6.45;4.47;;;;;;;12.72;89.52;99926.66;4972539;28;20055;-87
2023/03/26 04:37:21;;;;;;;10.45;5.05;;;;;;;12.70;88.95;99944.88;4987806;28;20121;-84
2023/03/26 04:39:46;;;;;;;6.57;5.00;;;;;;;12.74;89.60;99940.88;4992832;28;20102;-83
2023/03/26 04:42:13;;;;;;;6.88;4.88;;;;;;;12.68;89.65;99943.34;4982562;28;20066;-84
2023/03/26 04:44:41;;;;;;;6.85;5.15;;;;;;;12.75;89.84;99953.34;4995079;28;20049;-84
2023/03/26 04:47:06;;;;;;;6.10;5.30;;;;;;;12.80;90.20;99961.84;4994784;28;20058;-85
2023/03/26 04:49:32;;;;;;;7.15;5.53;;;;;;;12.82;90.43;99964.38;4993216;28;20082;-86
2023/03/26 04:51:57;;;;;;;5.47;4.60;;;;;;;12.87;90.40;99972.88;4973221;28;20050;-84
2023/03/26 04:54:23;;;;;;;7.05;5.43;;;;;;;12.86;90.73;99966.63;4983748;28;20073;-87
2023/03/26 04:56:58;;;;;;;6.93;4.50;;;;;;;12.84;90.31;99963.19;4974891;28;20137;-87
2023/03/26 04:59:33;;;;;;;13.20;5.07;;;;;;;12.88;89.98;99975.38;4968777;28;20078;-87
2023/03/26 05:02:00;;;;;;;5.95;4.40;;;;;;;12.82;90.00;99957.13;4968617;28;20034;-88
2023/03/26 05:04:28;;;;;;;6.40;4.75;;;;;;;12.90;90.42;99973.38;4969364;28;20046;-85
2023/03/26 05:06:57;;;;;;;11.55;6.15;;;;;;;12.88;90.51;99975.38;4991181;28;20884;-85
2023/03/26 05:09:24;;;;;;;10.07;5.88;;;;;;;12.84;90.06;99971.28;4990843;28;20105;-85
2023/03/26 05:11:50;;;;;;;8.40;5.97;;;;;;;12.95;90.51;99984.56;4992413;28;20058;-88
2023/03/26 05:14:16;;;;;;;11.38;6.22;;;;;;;12.83;90.53;99975.03;5013686;28;20038;-84
2023/03/26 05:16:43;;;;;;;10.63;6.05;;;;;;;12.81;89.89;99971.59;5014935;28;20073;-85
2023/03/26 05:19:09;;;;;;;10.25;6.53;;;;;;;12.86;90.04;99965.75;4992943;28;20033;-86
2023/03/26 05:21:35;;;;;;;13.13;7.53;;;;;;;12.82;90.54;99959.81;4992840;28;20113;-88
2023/03/26 05:24:01;;;;;;;8.95;6.32;;;;;;;12.86;91.19;99961.22;4991662;28;20057;-85
2023/03/26 05:26:29;;;;;;;6.78;5.55;;;;;;;12.85;90.92;99975.69;4992674;28;20033;-85
2023/03/26 05:28:55;;;;;;;10.27;5.10;;;;;;;12.82;91.28;99978.72;4992803;28;20030;-86
2023/03/26 05:31:21;;;;;;;10.90;6.60;;;;;;;12.77;89.52;99994.53;4978045;28;20397;-87
2023/03/26 05:33:47;;;;;;;9.52;6.40;;;;;;;12.68;89.92;99978.41;4993310;28;20030;-85
2023/03/26 05:36:14;;;;;;;8.43;6.22;;;;;;;12.75;90.42;99974.94;5009695;28;20043;-83
2023/03/26 05:38:40;;;;;;;9.27;6.95;;;;;;;12.72;90.21;99967.13;4996440;28;20026;-85
2023/03/26 05:41:07;;;;;;;10.23;6.65;;;;;;;12.86;91.15;99982.81;5009534;28;20018;-87
2023/03/26 05:43:34;;;;;;;11.90;6.38;;;;;;;12.92;92.00;99960.59;5003011;28;20023;-85
2023/03/26 05:45:59;;;;;;;9.40;6.35;;;;;;;12.94;91.56;99958.56;5002034;28;20366;-84
2023/03/26 05:48:25;;;;;;;9.20;6.07;;;;;;;13.04;91.32;99970.13;4998541;28;20037;-86
2023/03/26 05:50:53;;;;;;;7.60;4.97;;;;;;;12.97;89.84;99974.47;4998154;28;20026;-85
2023/03/26 05:53:20;;;;;;;6.63;5.45;;;;;;;13.07;90.13;99974.38;4991202;28;20109;-86
2023/03/26 05:55:49;;;;;;;6.13;4.93;;;;;;;13.22;90.04;99974.69;4990381;28;20500;-87
2023/03/26 05:58:15;;;;;;;7.95;5.28;;;;;;;13.28;90.69;99971.34;4990882;28;20100;-88
2023/03/26 06:00:42;;;;;;;7.85;5.50;;;;;;;13.43;90.90;99992.22;4990161;28;20034;-87
2023/03/26 06:03:11;;;;;;;8.93;5.55;;;;;;;13.50;90.41;99995.16;4989731;28;20037;-85
2023/03/26 06:05:38;;;;;;;9.40;5.32;;;;;;;13.53;89.46;100002.94;4989684;28;20034;-86
2023/03/26 06:08:04;;;;;;;9.02;5.68;;;;;;;13.52;88.46;100007.47;4989825;28;20066;-87
2023/03/26 06:10:30;;;;;;;7.25;4.88;;;;;;;13.59;88.82;99999.59;4990394;28;20109;-85
2023/03/26 06:12:56;;;;;;;8.55;4.90;;;;;;;13.59;88.32;99996.88;4991355;28;20110;-88
2023/03/26 06:15:22;;;;;;;6.00;4.60;;;;;;;13.63;87.69;100009.09;4994304;28;20474;-87
2023/03/26 06:17:48;;;;;;;7.32;4.13;;;;;;;13.63;87.07;100003.69;4978353;28;20050;-92
2023/03/26 06:20:14;;;;;;;6.70;4.57;;;;;;;13.71;87.08;100006.41;5003202;28;20044;-87
2023/03/26 06:22:39;;;;;;;5.60;4.70;;;;;;;13.65;85.75;100012.47;4954129;29;20104;-89
2023/03/26 06:25:05;;;;;;;12.15;5.70;;;;;;;13.73;85.60;100012.50;4954165;29;20039;-86
2023/03/26 06:27:31;;;;;;;7.90;4.93;;;;;;;13.77;85.99;100003.06;4957794;29;20050;-88
2023/03/26 06:29:56;;;;;;;13.88;5.55;;;;;;;13.81;86.13;99999.06;4965801;29;20051;-90
2023/03/26 06:32:22;;;;;;;9.75;4.45;;;;;;;13.83;85.77;100004.28;4972897;29;20095;-87
2023/03/26 06:34:47;;;;;;;6.35;4.18;;;;;;;13.79;83.78;100008.34;4977630;28;20031;-88
2023/03/26 06:37:14;;;;;;;5.47;4.40;;;;;;;13.70;82.69;100006.59;4977951;28;20103;-82
2023/03/26 06:39:40;;;;;;;6.70;4.20;;;;;;;13.70;83.29;99995.78;4957144;29;20027;-90
2023/03/26 06:42:06;;;;;;;6.18;4.03;;;;;;;13.70;83.39;99999.31;4953208;29;20043;-90
2023/03/26 06:44:31;;;;;;;7.00;4.05;;;;;;;13.64;83.25;100016.16;4948943;29;20035;-89
2023/03/26 06:46:57;;;;;;;6.13;4.00;;;;;;;13.70;83.65;100012.00;4956402;29;20038;-94
2023/03/26 06:49:22;;;;;;;7.30;3.63;;;;;;;13.68;82.10;100011.28;4956184;29;20195;-91
2023/03/26 06:51:48;;;;;;;8.60;5.20;;;;;;;13.75;81.93;100018.63;4937702;29;20110;-90
2023/03/26 06:54:13;;;;;;;6.00;3.90;;;;;;;13.75;81.76;100015.91;4983661;28;20033;-92
2023/03/26 06:56:39;;;;;;;10.88;3.63;;;;;;;13.70;81.57;100020.94;4996477;28;20034;-91
2023/03/26 06:59:04;;;;;;;7.93;3.25;;;;;;;13.71;80.58;100027.19;5000003;28;20033;-91
2023/03/26 07:01:30;;;;;;;6.30;4.05;;;;;;;13.72;80.35;100024.34;4997413;28;20401;-88
2023/03/26 07:03:56;;;;;;;6.25;4.22;;;;;;;13.68;80.00;100016.69;4995576;28;20072;-89
2023/03/26 07:06:21;;;;;;;7.30;4.00;;;;;;;13.59;77.98;100029.31;4994000;28;20037;-92
2023/03/26 07:08:47;;;;;;;8.35;4.65;;;;;;;13.60;78.44;100020.22;4993492;28;20066;-91
2023/03/26 07:11:15;;;;;;;4.97;4.20;;;;;;;13.64;79.93;100024.25;4994187;28;20047;-89
2023/03/26 07:13:41;;;;;;;13.93;4.68;;;;;;;13.63;79.13;100025.28;4993839;28;20583;-87
2023/03/26 07:16:07;;;;;;;10.88;4.05;;;;;;;13.69;78.27;100030.06;4996546;28;20053;-89
2023/03/26 07:18:32;;;;;;;8.38;6.10;;;;;;;13.73;78.39;100025.19;4993387;28;20089;-89
2023/03/26 07:20:58;;;;;;;10.68;3.80;;;;;;;13.74;77.84;100027.72;4993390;28;20057;-85
2023/03/26 07:23:23;;;;;;;5.57;3.40;;;;;;;13.71;77.52;100019.94;4992646;28;20030;-88
2023/03/26 07:25:50;;;;;;;5.97;3.90;;;;;;;13.81;79.05;100017.97;4993301;28;20031;-87
2023/03/26 07:28:28;;;;;;;9.48;3.13;;;;;;;13.91;77.26;100029.50;4979131;28;20093;-85
2023/03/26 07:31:14;;;;;;;4.55;3.63;;;;;;;14.03;77.54;100022.84;5002990;28;20094;-83
2023/03/26 07:34:02;;;;;;;9.55;3.95;;;;;;;14.27;76.85;100035.59;5015801;28;20022;-84
2023/03/26 07:37:01;;;;;;;6.05;3.47;;;;;;;14.38;75.41;100032.63;5002407;28;20029;-87
2023/03/26 07:39:43;;;;;;;11.05;3.20;;;;;;;14.54;76.30;100024.56;4992954;28;20200;-87
2023/03/26 07:42:30;;;;;;;5.43;3.13;;;;;;;14.52;73.43;100023.06;4992106;28;20026;-88
2023/03/26 07:45:08;;;;;;;7.93;3.42;;;;;;;14.54;74.71;100021.03;4995852;28;20035;-85
2023/03/26 07:47:35;;;;;;;10.07;3.58;;;;;;;14.61;74.99;100032.88;4992414;28;20029;-86
2023/03/26 07:50:01;;;;;;;9.55;3.90;;;;;;;14.65;73.56;100009.88;4978686;28;20041;-89
2023/03/26 07:52:27;;;;;;;14.57;3.90;;;;;;;14.76;73.98;100006.00;4995807;28;20105;-86
2023/03/26 07:54:53;;;;;;;8.00;3.83;;;;;;;14.73;72.77;99999.06;4996255;28;20065;-87
2023/03/26 07:58:03;;;;;;;6.55;3.20;;;;;;;14.86;72.88;99999.41;4977333;28;20027;-87
2023/03/26 08:00:37;;;;;;;7.43;4.68;;;;;;;14.80;70.56;99983.84;4913372;29;20424;-85
2023/03/26 08:03:08;;;;;;;6.03;4.65;;;;;;;14.68;69.79;99985.19;4911934;29;20705;-87
2023/03/26 08:05:42;;;;;;;11.93;5.13;;;;;;;14.71;71.41;99988.41;4913065;29;20088;-87
2023/03/26 08:08:13;;;;;;;11.15;5.68;;;;;;;14.76;70.45;99984.34;4911495;29;20056;-83
2023/03/26 08:10:57;;;;;;;8.27;4.53;;;;;;;14.83;71.08;99983.50;4911710;29;20064;-87
2023/03/26 08:13:49;;;;;;;12.40;5.45;;;;;;;14.78;69.93;99991.28;4911901;29;20147;-85
2023/03/26 08:16:40;;;;;;;14.18;5.93;;;;;;;14.71;69.66;99995.66;4911718;29;20057;-88
2023/03/26 08:19:06;;;;;;;12.77;6.20;;;;;;;14.76;70.76;99989.78;4892762;29;20123;-84
2023/03/26 08:21:41;;;;;;;11.57;6.35;;;;;;;14.72;70.79;99986.53;4892793;29;20075;-84
2023/03/26 08:24:31;;;;;;;10.07;6.60;;;;;;;14.81;71.46;99984.69;4879502;29;20041;-87
2023/03/26 08:27:01;;;;;;;9.60;6.70;;;;;;;15.00;70.21;99984.38;4911228;29;20032;-86
2023/03/26 08:30:02;;;;;;;10.25;6.10;;;;;;;15.25;68.97;99988.78;4915453;29;20056;-86
2023/03/26 08:32:28;;;;;;;14.85;5.82;;;;;;;15.42;68.49;99990.44;4993510;28;20098;-83
2023/03/26 08:34:56;;;;;;;6.88;5.30;;;;;;;15.63;68.91;99981.81;4943770;28;20074;-85
2023/03/26 08:37:21;;;;;;;10.10;5.43;;;;;;;15.86;67.74;99993.63;4979210;28;20043;-87
2023/03/26 08:39:47;;;;;;;16.33;6.22;;;;;;;15.95;66.48;99973.59;4972589;28;20143;-88
2023/03/26 08:42:38;;;;;;;11.38;6.28;;;;;;;16.20;64.57;99972.47;4970760;28;20047;-89
2023/03/26 08:45:22;;;;;;;11.32;5.75;;;;;;;16.33;63.75;99980.88;4970623;28;20045;-90
2023/03/26 08:48:21;;;;;;;9.40;4.90;;;;;;;16.39;62.96;99984.72;4968509;28;20046;-83
2023/03/26 08:50:58;;;;;;;14.93;5.30;;;;;;;16.48;63.02;99972.00;4969993;28;20126;-87
2023/03/26 08:53:41;;;;;;;9.80;5.10;;;;;;;16.58;61.41;99988.91;4967400;28;20043;-84
2023/03/26 08:56:31;;;;;;;10.43;4.88;;;;;;;16.62;60.91;99984.81;4972902;28;20097;-83
2023/03/26 08:59:12;;;;;;;8.93;4.25;;;;;;;16.73;61.06;99984.38;4971401;28;20046;-83
2023/03/26 09:01:46;;;;;;;10.80;4.50;;;;;;;16.92;60.01;99975.78;4972300;28;20561;-84
2023/03/26 09:04:26;;;;;;;9.50;4.60;;;;;;;17.03;60.06;99988.09;4993863;28;20034;-81
2023/03/26 09:07:10;;;;;;;8.05;4.85;;;;;;;17.13;59.65;99983.25;4991001;28;20045;-81
2023/03/26 09:10:00;;;;;;;7.90;4.63;;;;;;;17.19;59.14;99982.50;4990991;28;20151;-80
2023/03/26 09:12:48;;;;;;;22.10;4.97;;;;;;;17.17;58.79;99990.88;4988796;28;20106;-80
2023/03/26 09:15:32;;;;;;;12.20;4.47;;;;;;;17.16;58.65;99989.16;4988800;28;20117;-81
2023/03/26 09:18:35;;;;;;;12.65;4.55;;;;;;;17.15;58.72;100003.81;4982170;28;20031;-81
2023/03/26 09:21:12;;;;;;;7.47;3.60;;;;;;;17.10;56.92;100006.19;4969587;28;20031;-83
2023/03/26 09:24:12;;;;;;;5.25;2.70;;;;;;;16.92;56.00;100008.38;4969533;28;20038;-84
2023/03/26 09:27:02;;;;;;;7.00;3.00;;;;;;;16.84;55.98;100027.47;4982061;28;20039;-84
2023/03/26 09:29:52;;;;;;;11.82;2.70;;;;;;;16.80;55.81;100021.53;4985216;28;20035;-84
2023/03/26 09:33:02;;;;;;;4.18;2.67;;;;;;;16.86;55.88;100018.09;4969507;28;20170;-82
2023/03/26 09:35:48;;;;;;;5.72;3.03;;;;;;;16.96;56.20;100023.28;4946723;28;20047;-82
2023/03/26 09:38:35;;;;;;;7.90;3.22;;;;;;;16.96;55.49;100031.44;4946711;28;20035;-82
2023/03/26 09:41:31;;;;;;;6.00;3.17;;;;;;;16.94;55.76;100021.78;4946614;28;20043;-82
2023/03/26 09:44:05;;;;;;;9.65;3.35;;;;;;;16.88;55.94;100024.19;4947009;29;20042;-82
2023/03/26 09:46:42;;;;;;;15.18;3.03;;;;;;;17.02;56.16;100025.28;4947216;29;20169;-82
2023/03/26 09:49:28;;;;;;;5.18;2.80;;;;;;;17.07;55.48;100032.88;4949186;28;20392;-81
2023/03/26 09:52:31;;;;;;;14.15;3.85;;;;;;;17.10;54.16;100041.53;4950571;29;20563;-82
2023/03/26 09:54:59;;;;;;;26.02;4.10;;;;;;;17.06;54.91;100037.50;4950785;29;20031;-82
2023/03/26 09:58:05;;;;;;;22.20;3.95;;;;;;;17.22;55.69;100050.94;4950975;29;20031;-83
2023/03/26 10:00:34;;;;;;;10.32;3.58;;;;;;;17.33;56.10;100027.94;4950586;28;20043;-80
2023/03/26 10:03:02;;;;;;;5.47;2.70;;;;;;;17.39;54.97;100028.06;4952251;29;20038;-86
2023/03/26 10:05:48;;;;;;;9.50;2.70;;;;;;;17.50;54.74;100028.63;4935963;29;20203;-87
2023/03/26 10:08:26;;;;;;;9.18;3.10;;;;;;;17.65;55.55;100026.81;4951823;29;20147;-88
2023/03/26 10:11:21;;;;;;;16.05;3.60;;;;;;;17.86;54.68;100021.50;4951480;29;20039;-80
2023/03/26 10:14:03;;;;;;;24.90;3.15;;;;;;;17.99;53.63;100024.41;4978179;28;20023;-86
2023/03/26 10:17:05;;;;;;;4.47;2.70;;;;;;;18.09;53.03;100030.44;4974941;28;20042;-83
2023/03/26 10:19:40;;;;;;;18.80;4.00;;;;;;;18.28;53.69;100040.78;4957728;28;20333;-83
2023/03/26 10:22:22;;;;;;;4.93;3.55;;;;;;;18.22;51.40;100046.97;4977405;28;20061;-83
2023/03/26 10:25:09;;;;;;;25.02;3.08;;;;;;;17.97;51.57;100041.97;4994241;28;20182;-86
2023/03/26 10:28:07;;;;;;;5.38;2.85;;;;;;;17.74;51.98;100047.47;4982908;28;20065;-82
2023/03/26 10:31:00;;;;;;;4.90;3.05;;;;;;;17.66;52.74;100045.69;4952359;29;20479;-83
2023/03/26 10:33:52;;;;;;;8.13;2.70;;;;;;;17.76;53.86;100050.88;4952121;29;20043;-85
2023/03/26 10:36:35;;;;;;;4.32;2.67;;;;;;;17.74;53.22;100042.88;4951745;29;20106;-86
2023/03/26 10:39:03;;;;;;;;;;;;;;;17.78;52.94;100043.34;4951521;29;20047;-84
2023/03/26 10:41:42;;;;;;;5.70;1.85;;;;;;;17.63;52.99;100039.75;4934990;29;20313;-83
2023/03/26 10:44:16;;;;;;;5.40;3.13;;;;;;;17.49;52.61;100044.09;4949790;28;20051;-86
2023/03/26 10:46:55;;;;;;;21.30;4.22;;;;;;;17.53;52.91;100044.56;4951357;29;20122;-83
2023/03/26 10:49:39;;;;;;;5.88;1.95;;;;;;;17.52;51.93;100048.34;4952084;29;20031;-89
2023/03/26 10:52:15;;;;;;;7.53;2.20;;;;;;;17.49;52.69;100043.28;4951192;29;20055;-87
2023/03/26 10:55:11;;;;;;;4.78;1.98;;;;;;;17.49;52.04;100048.72;4951000;29;20135;-86
2023/03/26 10:58:08;;;;;;;9.20;2.60;;;;;;;17.39;51.22;100047.09;4951647;29;20588;-90
2023/03/26 11:00:41;;;;;;;5.93;2.22;;;;;;;17.32;51.36;100035.25;4951847;28;20122;-88
2023/03/26 11:03:20;;;;;;;1.70;1.60;;;;;;;17.32;51.12;100040.69;4951546;28;20031;-85
2023/03/26 11:05:48;;;;;;;8.07;2.35;;;;;;;17.36;51.38;100044.72;4960165;28;20457;-87
2023/03/26 11:08:37;;;;;;;2.65;1.88;;;;;;;17.49;51.61;100044.09;4974432;28;20065;-84
2023/03/26 11:11:05;;;;;;;11.63;2.85;;;;;;;17.77;51.19;100039.78;4992303;28;20029;-87
2023/03/26 11:13:33;;;;;;;4.00;2.03;;;;;;;17.89;50.00;100051.03;4994716;28;20164;-83
2023/03/26 11:16:05;;;;;;;5.15;2.20;;;;;;;17.84;50.45;100020.84;4993883;28;20030;-86
2023/03/26 11:18:46;;;;;;;6.60;2.25;;;;;;;18.11;49.50;100061.03;4947340;28;20042;-90
2023/03/26 11:21:23;;;;;;;5.50;3.00;;;;;;;18.00;49.47;100050.59;4999164;28;20045;-87
2023/03/26 11:23:55;;;;;;;4.53;2.47;;;;;;;18.09;49.54;100054.06;5013903;28;20078;-85
2023/03/26 11:26:35;;;;;;;4.50;2.05;;;;;;;18.17;49.48;100059.41;4995931;28;20061;-86
2023/03/26 11:29:17;;;;;;;5.55;2.13;;;;;;;18.11;48.99;100050.13;4992557;28;20423;-86
2023/03/26 11:32:05;;;;;;;4.85;1.85;;;;;;;18.25;49.09;100035.69;4991838;28;20135;-83
2023/03/26 11:34:58;;;;;;;2.22;1.52;;;;;;;18.39;48.54;100020.38;4895443;29;20491;-84
2023/03/26 11:37:32;;;;;;;6.25;2.15;;;;;;;18.59;48.30;100042.44;4910945;29;20083;-84
2023/03/26 11:40:04;;;;;;;3.55;1.60;;;;;;;18.56;47.64;100027.31;4910588;29;20071;-88
2023/03/26 11:42:31;;;;;;;3.63;1.73;;;;;;;18.72;47.96;100021.66;4920858;29;20093;-85
2023/03/26 11:45:01;;;;;;;7.25;1.65;;;;;;;18.89;45.51;100038.63;4915969;29;20183;-88
2023/03/26 11:47:41;;;;;;;3.95;1.45;;;;;;;18.93;45.47;100029.00;4915026;29;20166;-89
2023/03/26 11:50:15;;;;;;;4.03;1.52;;;;;;;19.00;44.68;100035.38;4913564;29;20032;-86